KJYM

Hillsdale Municipal Airport

Hillsdale, Michigan, USA
METAR KJYM 240135Z AUTO 00000KT 10SM CLR 17/12 A3018 RMK AO2
Observed Flight Rules
May-24 @ 01:35 UTC (23 minutes ago) Visual Flight Rules
Visibility Clouds
10 miles
  • Clear skies
Temperatures Readings
Current 17°C / 63°F
Dewpoint 12°C / 54°F
Humidity 73%
Altimeter 30.18" Hg
Pressure 1022 hPa
Elevation 360
METAR KJYM 240135Z AUTO 00000KT 10SM CLR 17/12 A3018 RMK AO2
Observed Flight Rules
May-24 @ 01:35 UTC
(23 minutes ago)
VFR
Clouds
  • Clear skies
Temperature Dewpoint
17°C / 63°F 12°C / 54°F
Humidity Altimeter Pressure
73% 30.18" Hg 1022 hPa